Narringa — AJH633N — position and weather

sailwx.info

Track history (hours):
 
Tides and Currents Weather Stations Pressure Air Temp Water Temp Dewpoint Dewpoint Depression Visibility Wind Speed Wind Dir Waves Ship Positions

Narringa

Last reported at 2018-Feb-14 05:42 UTC. Time now 2018-Feb-19 00:25 UTC.
Position S 32°40' E 152°10'.

Length 8 m.

Type: Pleasure craft. MMSI: 503058250.

Date/timePositionNaut miles runAvg speedWind from/ knotsBaromVisibWave heightAir tempDewpointWater temp
2018-Feb-14 05:42S 32°40' E 152°10'0 0.0
2018-Feb-14 05:30S 32°40' E 152°10'0 0.9
2018-Feb-14 05:00S 32°40' E 152°10'0 0.0
2018-Feb-14 04:30S 32°40' E 152°10'0 0.5
2018-Feb-14 04:00S 32°40' E 152°10'3 6.6
2018-Feb-14 03:30S 32°41' E 152°07'2 4.8
2018-Feb-14 03:00S 32°42' E 152°04'1 2.3
2018-Feb-14 02:31S 32°41' E 152°03'1 0.7
2018-Feb-14 01:37S 32°41' E 152°04'0 2.7
2018-Feb-14 01:30S 32°41' E 152°03'3 5.7
2018-Feb-14 01:00S 32°44' E 152°02'0 0.0
2018-Feb-14 00:29S 32°44' E 152°02'1 1.4
2018-Feb-14 00:00S 32°44' E 152°02'1 1.4
2018-Feb-13 23:30S 32°44' E 152°02'0 0.0
2018-Feb-13 23:00S 32°44' E 152°02'0 0.0
2018-Feb-13 22:27S 32°44' E 152°02'2 5.5
2018-Feb-13 22:00S 32°42' E 152°04'5 9.9
2018-Feb-13 21:30S 32°41' E 152°10'1 0.0
2018-Feb-13 03:30S 32°40' E 152°10'0 0.0
2018-Feb-13 02:59S 32°40' E 152°10'0 0.0
2018-Feb-13 02:30S 32°40' E 152°10'0 0.0
2018-Feb-12 03:14S 32°40' E 152°10'0 0.0
2018-Feb-12 02:59S 32°40' E 152°10'0 0.0
2018-Feb-11 22:08S 32°40' E 152°10'0 0.0
2018-Feb-11 21:59S 32°40' E 152°10'0 0.0
2018-Feb-10 04:46S 32°40' E 152°10'0 0.0
2018-Feb-10 04:30S 32°40' E 152°10'2 3.3
2018-Feb-10 04:00S 32°40' E 152°08'1 1.3
2018-Feb-10 03:30S 32°40' E 152°09'1 0.4
2018-Feb-10 01:01S 32°40' E 152°10'  
2018-Feb-07 03:29S 32°40' E 152°10'0 0.0
2018-Feb-07 01:42S 32°40' E 152°10'0 0.0
2018-Feb-07 01:30S 32°40' E 152°10'0 0.0
2018-Feb-07 01:00S 32°40' E 152°10'0 0.0
2018-Feb-05 00:36S 32°40' E 152°10'0 0.0
2018-Feb-05 00:30S 32°40' E 152°10'0 0.0
2018-Feb-05 00:00S 32°40' E 152°10'  
Track history (hours):
 
Tides and Currents Weather Stations Pressure Air Temp Water Temp Dewpoint Dewpoint Depression Visibility Wind Speed Wind Dir Waves Ship Positions

Narringa

Last reported at 2018-Feb-14 05:42 UTC. Time now 2018-Feb-19 00:25 UTC.
Position S 32°40' E 152°10'.

Length 8 m.

Type: Pleasure craft. MMSI: 503058250.

Date/timePositionNaut miles runAvg speedWind from/ knotsBaromVisibWave heightAir tempDewpointWater temp
2018-Feb-14 05:42S 32°40' E 152°10'0 0.0
2018-Feb-14 05:30S 32°40' E 152°10'0 0.9
2018-Feb-14 05:00S 32°40' E 152°10'0 0.0
2018-Feb-14 04:30S 32°40' E 152°10'0 0.5
2018-Feb-14 04:00S 32°40' E 152°10'3 6.6
2018-Feb-14 03:30S 32°41' E 152°07'2 4.8
2018-Feb-14 03:00S 32°42' E 152°04'1 2.3
2018-Feb-14 02:31S 32°41' E 152°03'1 0.7
2018-Feb-14 01:37S 32°41' E 152°04'0 2.7
2018-Feb-14 01:30S 32°41' E 152°03'3 5.7
2018-Feb-14 01:00S 32°44' E 152°02'0 0.0
2018-Feb-14 00:29S 32°44' E 152°02'1 1.4
2018-Feb-14 00:00S 32°44' E 152°02'1 1.4
2018-Feb-13 23:30S 32°44' E 152°02'0 0.0
2018-Feb-13 23:00S 32°44' E 152°02'0 0.0
2018-Feb-13 22:27S 32°44' E 152°02'2 5.5
2018-Feb-13 22:00S 32°42' E 152°04'5 9.9
2018-Feb-13 21:30S 32°41' E 152°10'1 0.0
2018-Feb-13 03:30S 32°40' E 152°10'0 0.0
2018-Feb-13 02:59S 32°40' E 152°10'0 0.0
2018-Feb-13 02:30S 32°40' E 152°10'0 0.0
2018-Feb-12 03:14S 32°40' E 152°10'0 0.0
2018-Feb-12 02:59S 32°40' E 152°10'0 0.0
2018-Feb-11 22:08S 32°40' E 152°10'0 0.0
2018-Feb-11 21:59S 32°40' E 152°10'0 0.0
2018-Feb-10 04:46S 32°40' E 152°10'0 0.0
2018-Feb-10 04:30S 32°40' E 152°10'2 3.3
2018-Feb-10 04:00S 32°40' E 152°08'1 1.3
2018-Feb-10 03:30S 32°40' E 152°09'1 0.4
2018-Feb-10 01:01S 32°40' E 152°10'  
2018-Feb-07 03:29S 32°40' E 152°10'0 0.0
2018-Feb-07 01:42S 32°40' E 152°10'0 0.0
2018-Feb-07 01:30S 32°40' E 152°10'0 0.0
2018-Feb-07 01:00S 32°40' E 152°10'0 0.0
2018-Feb-05 00:36S 32°40' E 152°10'0 0.0
2018-Feb-05 00:30S 32°40' E 152°10'0 0.0
2018-Feb-05 00:00S 32°40' E 152°10'  

Dump ship's entire track history